createdAt,value
2018-12-20T00:01:36.599Z,3.40
2018-12-20T00:04:05.616Z,3.40
2018-12-20T00:06:34.640Z,3.40
2018-12-20T00:09:05.449Z,3.40
2018-12-20T00:11:34.102Z,3.40
2018-12-20T00:14:03.014Z,3.40
2018-12-20T00:16:32.052Z,3.40
2018-12-20T00:19:01.051Z,3.40
2018-12-20T00:21:29.861Z,3.40
2018-12-20T00:23:58.471Z,3.40
2018-12-20T00:26:27.378Z,3.40
2018-12-20T00:28:56.292Z,3.40
2018-12-20T00:31:25.214Z,3.40
2018-12-20T00:33:54.010Z,3.30
2018-12-20T00:36:22.823Z,3.30
2018-12-20T00:38:51.511Z,3.30
2018-12-20T00:41:20.379Z,3.30
2018-12-20T00:43:49.076Z,3.20
2018-12-20T00:46:17.949Z,3.20
2018-12-20T00:48:46.819Z,3.20
2018-12-20T00:51:15.799Z,3.20
2018-12-20T00:53:44.439Z,3.10
2018-12-20T00:56:13.243Z,3.10
2018-12-20T00:58:41.881Z,3.10
2018-12-20T01:01:11.049Z,3.00
2018-12-20T01:03:39.916Z,3.00
2018-12-20T01:06:08.627Z,2.90
2018-12-20T01:08:37.712Z,2.90
2018-12-20T01:11:07.604Z,2.90
2018-12-20T01:13:36.481Z,2.90
2018-12-20T01:16:05.316Z,2.80
2018-12-20T01:18:34.233Z,2.90
2018-12-20T01:21:03.044Z,2.80
2018-12-20T01:23:32.098Z,2.80
2018-12-20T01:26:00.910Z,2.80
2018-12-20T01:28:29.658Z,2.90
2018-12-20T01:30:58.584Z,2.80
2018-12-20T01:33:27.504Z,2.80
2018-12-20T01:35:56.543Z,2.80
2018-12-20T01:38:25.370Z,2.80
2018-12-20T01:40:54.571Z,2.90
2018-12-20T01:43:23.860Z,2.80
2018-12-20T01:45:52.813Z,2.80
2018-12-20T01:48:21.728Z,2.90
2018-12-20T01:50:50.326Z,2.90
2018-12-20T01:53:18.990Z,2.90
2018-12-20T01:55:47.870Z,2.80
2018-12-20T01:58:16.606Z,2.90
2018-12-20T02:00:45.205Z,2.80
2018-12-20T02:03:14.083Z,2.80
2018-12-20T02:05:43.083Z,2.80
2018-12-20T02:08:12.003Z,2.80
2018-12-20T02:10:40.880Z,2.80
2018-12-20T02:13:10.086Z,2.80
2018-12-20T02:15:39.517Z,2.80
2018-12-20T02:18:08.557Z,2.80
2018-12-20T02:20:37.781Z,2.80
2018-12-20T02:23:07.001Z,2.80
2018-12-20T02:25:36.268Z,2.80
2018-12-20T02:28:05.044Z,2.80
2018-12-20T02:30:35.009Z,2.80
2018-12-20T02:33:04.230Z,2.80
2018-12-20T02:35:32.983Z,2.80
2018-12-20T02:38:01.979Z,2.70
2018-12-20T02:40:30.664Z,2.70
2018-12-20T02:42:59.340Z,2.70
2018-12-20T02:45:28.070Z,2.70
2018-12-20T02:47:56.878Z,2.70
2018-12-20T02:50:25.873Z,2.60
2018-12-20T02:52:55.381Z,2.60
2018-12-20T02:55:24.043Z,2.60
2018-12-20T02:57:52.966Z,2.60
2018-12-20T03:00:21.930Z,2.60
2018-12-20T03:02:50.498Z,2.60
2018-12-20T03:05:19.337Z,2.60
2018-12-20T03:07:48.397Z,2.60
2018-12-20T03:10:17.173Z,2.50
2018-12-20T03:12:45.891Z,2.50
2018-12-20T03:15:19.819Z,2.40
2018-12-20T03:17:45.670Z,2.40
2018-12-20T03:20:14.595Z,2.50
2018-12-20T03:22:43.545Z,2.50
2018-12-20T03:25:12.243Z,2.40
2018-12-20T03:27:41.268Z,2.40
2018-12-20T03:30:09.997Z,2.40
2018-12-20T03:32:38.966Z,2.30
2018-12-20T03:35:09.826Z,2.40
2018-12-20T03:37:38.929Z,2.30
2018-12-20T03:40:08.687Z,2.40
2018-12-20T03:42:37.809Z,2.40
2018-12-20T03:45:07.443Z,2.40
2018-12-20T03:47:36.404Z,2.50
2018-12-20T03:50:06.010Z,2.50
2018-12-20T03:52:34.692Z,2.50
2018-12-20T03:55:03.291Z,2.60
2018-12-20T03:57:32.035Z,2.60
2018-12-20T04:00:00.742Z,2.60
2018-12-20T04:02:29.638Z,2.60
2018-12-20T04:04:58.647Z,2.60
2018-12-20T04:07:27.500Z,2.60
2018-12-20T04:09:56.712Z,2.70
2018-12-20T04:12:25.435Z,2.70
2018-12-20T04:14:54.764Z,2.70
2018-12-20T04:17:24.084Z,2.70
2018-12-20T04:19:53.167Z,2.60
2018-12-20T04:22:22.344Z,2.60
2018-12-20T04:24:51.273Z,2.60
2018-12-20T04:27:20.093Z,2.70
2018-12-20T04:29:48.949Z,2.70
2018-12-20T04:32:17.654Z,2.70
2018-12-20T04:34:46.228Z,2.60
2018-12-20T04:37:14.934Z,2.70
2018-12-20T04:39:44.041Z,2.70
2018-12-20T04:42:12.583Z,2.70
2018-12-20T04:44:41.551Z,2.70
2018-12-20T04:47:10.679Z,2.70
2018-12-20T04:49:39.700Z,2.70
2018-12-20T04:52:08.855Z,2.80
2018-12-20T04:54:37.778Z,2.70
2018-12-20T04:57:06.505Z,2.70
2018-12-20T04:59:35.394Z,2.80
2018-12-20T05:02:04.636Z,2.80
2018-12-20T05:04:33.326Z,2.80
2018-12-20T05:07:02.944Z,2.90
2018-12-20T05:09:31.752Z,2.90
2018-12-20T05:12:00.835Z,2.90
2018-12-20T05:14:29.665Z,2.90
2018-12-20T05:16:58.688Z,2.90
2018-12-20T05:19:27.530Z,2.90
2018-12-20T05:21:56.668Z,2.80
2018-12-20T05:24:25.294Z,2.90
2018-12-20T05:26:54.049Z,2.90
2018-12-20T05:29:23.082Z,2.90
2018-12-20T05:31:51.842Z,2.90
2018-12-20T05:34:20.553Z,2.90
2018-12-20T05:36:49.482Z,2.90
2018-12-20T05:39:18.358Z,2.90
2018-12-20T05:41:47.276Z,2.90
2018-12-20T05:44:16.243Z,2.90
2018-12-20T05:46:44.942Z,2.90
2018-12-20T05:49:14.025Z,2.90
2018-12-20T05:51:43.162Z,2.90
2018-12-20T05:54:12.310Z,2.90
2018-12-20T05:56:40.909Z,2.90
2018-12-20T05:59:09.569Z,2.80
2018-12-20T06:01:38.449Z,2.80
2018-12-20T06:04:07.332Z,2.80
2018-12-20T06:06:36.047Z,2.80
2018-12-20T06:09:08.138Z,2.80
2018-12-20T06:11:36.796Z,2.80
2018-12-20T06:14:05.558Z,2.80
2018-12-20T06:16:34.376Z,2.90
2018-12-20T06:19:04.140Z,2.90
2018-12-20T06:21:38.241Z,3.00
2018-12-20T06:24:08.504Z,3.00
2018-12-20T06:26:37.688Z,3.10
2018-12-20T06:29:07.075Z,3.10
2018-12-20T06:31:41.779Z,3.10
2018-12-20T06:34:12.976Z,3.20
2018-12-20T06:36:47.100Z,3.20
2018-12-20T06:39:20.387Z,3.10
2018-12-20T06:41:50.037Z,3.10
2018-12-20T06:44:25.724Z,3.10
2018-12-20T06:46:57.180Z,3.10
2018-12-20T06:49:28.106Z,3.10
2018-12-20T06:51:57.784Z,3.10
2018-12-20T06:54:29.326Z,3.00
2018-12-20T06:57:15.045Z,3.10
2018-12-20T07:18:17.363Z,3.20
2018-12-20T07:21:02.794Z,3.20
2018-12-20T07:23:32.030Z,3.10
2018-12-20T07:26:02.454Z,3.20
2018-12-20T07:28:31.120Z,3.20
2018-12-20T07:31:00.333Z,3.20
2018-12-20T07:33:31.904Z,3.10
2018-12-20T07:36:01.840Z,3.20
2018-12-20T07:38:31.046Z,3.20
2018-12-20T07:41:00.544Z,3.20
2018-12-20T07:43:29.653Z,3.20
2018-12-20T07:46:01.052Z,3.20
2018-12-20T07:48:32.300Z,3.20
2018-12-20T07:51:03.564Z,3.20
2018-12-20T07:53:32.989Z,3.20
2018-12-20T07:56:02.963Z,3.20
2018-12-20T07:58:32.103Z,3.20
2018-12-20T08:01:01.133Z,3.20
2018-12-20T08:03:29.734Z,3.20
2018-12-20T08:05:58.687Z,3.20
2018-12-20T08:08:27.555Z,3.20
2018-12-20T08:10:56.394Z,3.20
2018-12-20T08:13:25.363Z,3.20
2018-12-20T08:15:54.316Z,3.20
2018-12-20T08:18:23.367Z,3.20
2018-12-20T08:20:51.898Z,3.20
2018-12-20T08:23:20.908Z,3.20
2018-12-20T08:25:49.588Z,3.20
2018-12-20T08:28:18.367Z,3.20
2018-12-20T08:30:47.505Z,3.30
2018-12-20T08:33:16.978Z,3.30
2018-12-20T08:35:45.684Z,3.30
2018-12-20T08:38:14.381Z,3.30
2018-12-20T08:40:43.373Z,3.40
2018-12-20T08:43:12.041Z,3.40
2018-12-20T08:45:40.841Z,3.40
2018-12-20T08:48:10.080Z,3.50
2018-12-20T08:50:39.207Z,3.60
2018-12-20T08:53:08.746Z,3.60
2018-12-20T08:55:37.815Z,3.70
2018-12-20T08:58:06.860Z,3.70
2018-12-20T09:00:35.930Z,3.80
2018-12-20T09:03:05.308Z,3.80
2018-12-20T09:05:37.016Z,3.90
2018-12-20T09:08:06.574Z,3.90
2018-12-20T09:10:35.794Z,4.00
2018-12-20T09:13:09.607Z,4.10
2018-12-20T09:15:35.573Z,4.20
2018-12-20T09:18:04.614Z,4.30
2018-12-20T09:20:33.602Z,4.40
2018-12-20T09:23:02.588Z,4.40
2018-12-20T09:25:32.130Z,4.50
2018-12-20T09:28:00.935Z,4.60
2018-12-20T09:30:30.567Z,4.70
2018-12-20T09:32:59.816Z,4.80
2018-12-20T09:35:34.314Z,4.90
2018-12-20T09:38:03.429Z,4.90
2018-12-20T09:40:35.448Z,5.00
2018-12-20T09:43:04.573Z,5.10
2018-12-20T09:45:33.555Z,5.20
2018-12-20T09:48:06.919Z,5.20
2018-12-20T09:50:38.248Z,5.20
2018-12-20T09:53:07.804Z,5.20
2018-12-20T09:55:36.993Z,5.20
2018-12-20T09:58:05.967Z,5.20
2018-12-20T10:00:52.772Z,5.10
2018-12-20T10:03:25.424Z,5.10
2018-12-20T10:05:55.542Z,5.00
2018-12-20T10:08:26.563Z,5.00
2018-12-20T10:10:55.482Z,5.00
2018-12-20T10:13:24.941Z,5.00
2018-12-20T10:15:54.095Z,5.10
2018-12-20T10:18:22.977Z,5.00
2018-12-20T10:21:11.478Z,5.00
2018-12-20T10:27:20.499Z,5.00
2018-12-20T10:29:49.480Z,5.00
2018-12-20T10:32:19.021Z,5.00
2018-12-20T10:34:47.903Z,5.00
2018-12-20T10:37:23.232Z,5.00
2018-12-20T10:39:53.458Z,5.00
2018-12-20T10:42:24.321Z,4.90
2018-12-20T10:44:53.718Z,4.90
2018-12-20T10:47:29.104Z,4.90
2018-12-20T10:49:57.113Z,4.90
2018-12-20T10:52:26.051Z,4.90
2018-12-20T10:54:55.787Z,4.90
2018-12-20T10:57:24.846Z,4.90
2018-12-20T11:02:53.378Z,4.90
2018-12-20T11:05:28.001Z,4.90
2018-12-20T11:08:03.955Z,5.00
2018-12-20T11:10:33.047Z,5.00
2018-12-20T11:13:06.629Z,5.00
2018-12-20T11:15:37.372Z,5.00
2018-12-20T11:18:07.503Z,5.00
2018-12-20T11:23:30.151Z,5.00
2018-12-20T11:25:58.886Z,5.10
2018-12-20T11:28:27.671Z,5.10
2018-12-20T11:30:56.563Z,5.10
2018-12-20T11:33:25.798Z,5.10
2018-12-20T11:35:56.027Z,5.20
2018-12-20T11:38:25.180Z,5.30
2018-12-20T11:40:58.522Z,5.30
2018-12-20T11:43:27.951Z,5.20
2018-12-20T11:45:57.815Z,5.40
2018-12-20T11:48:31.025Z,5.50
2018-12-20T11:51:01.301Z,5.40
2018-12-20T11:53:32.915Z,5.50
2018-12-20T11:56:09.884Z,5.60
2018-12-20T12:01:24.376Z,5.60
2018-12-20T12:03:58.061Z,5.60
2018-12-20T12:06:27.601Z,5.70
2018-12-20T12:08:56.564Z,5.70
2018-12-20T12:11:25.603Z,5.70
2018-12-20T12:13:55.095Z,5.70
2018-12-20T12:16:27.083Z,5.80
2018-12-20T12:18:57.278Z,5.80
2018-12-20T12:21:26.485Z,5.70
2018-12-20T12:23:55.744Z,5.70
2018-12-20T12:26:24.699Z,5.80
2018-12-20T12:28:53.683Z,5.70
2018-12-20T12:31:22.578Z,5.70
2018-12-20T12:33:52.502Z,5.70
2018-12-20T12:36:21.758Z,5.70
2018-12-20T12:38:55.023Z,5.70
2018-12-20T12:41:27.124Z,5.70
2018-12-20T12:43:56.226Z,5.70
2018-12-20T12:46:26.787Z,5.70
2018-12-20T12:48:55.994Z,5.80
2018-12-20T12:51:27.659Z,5.80
2018-12-20T12:53:57.118Z,5.80
2018-12-20T12:56:26.584Z,5.80
2018-12-20T12:58:55.972Z,5.80
2018-12-20T13:01:25.585Z,5.80
2018-12-20T13:03:54.958Z,5.90
2018-12-20T13:06:24.988Z,5.90
2018-12-20T13:08:54.525Z,5.90
2018-12-20T13:11:24.361Z,5.80
2018-12-20T13:13:53.944Z,5.80
2018-12-20T13:16:23.824Z,5.80
2018-12-20T13:18:54.156Z,5.90
2018-12-20T13:21:25.841Z,5.90
2018-12-20T13:23:55.417Z,5.90
2018-12-20T13:26:24.330Z,5.90
2018-12-20T13:28:53.637Z,5.90
2018-12-20T13:31:23.250Z,5.90
2018-12-20T13:33:52.369Z,5.90
2018-12-20T13:36:21.346Z,5.90
2018-12-20T13:38:52.128Z,6.10
2018-12-20T13:41:21.780Z,6.20
2018-12-20T13:43:50.890Z,6.30
2018-12-20T13:46:19.694Z,6.30
2018-12-20T13:48:52.266Z,6.40
2018-12-20T13:51:21.439Z,6.30
2018-12-20T13:53:57.116Z,6.30
2018-12-20T13:56:26.783Z,6.20
2018-12-20T13:59:03.379Z,6.20
2018-12-20T14:01:30.390Z,6.20
2018-12-20T14:06:45.993Z,6.10
2018-12-20T14:09:19.898Z,6.10
2018-12-20T14:11:49.188Z,6.00
2018-12-20T14:14:18.796Z,5.90
2018-12-20T14:16:47.788Z,5.90
2018-12-20T14:19:16.881Z,5.80
2018-12-20T14:21:46.077Z,5.70
2018-12-20T14:24:14.716Z,5.70
2018-12-20T14:26:43.669Z,5.70
2018-12-20T14:29:12.887Z,5.70
2018-12-20T14:31:41.986Z,5.60
2018-12-20T14:34:11.209Z,5.50
2018-12-20T14:36:41.199Z,5.50
2018-12-20T14:39:10.358Z,5.50
2018-12-20T14:41:39.597Z,5.50
2018-12-20T14:44:09.787Z,5.50
2018-12-20T14:46:39.155Z,5.40
2018-12-20T14:49:08.375Z,5.40
2018-12-20T14:51:37.813Z,5.30
2018-12-20T14:54:11.881Z,5.30
2018-12-20T14:56:42.592Z,5.20
2018-12-20T14:59:11.748Z,5.20
2018-12-20T15:01:41.239Z,5.10
2018-12-20T15:04:10.020Z,5.10
2018-12-20T15:06:39.095Z,5.00
2018-12-20T15:09:14.448Z,5.00
2018-12-20T15:11:44.596Z,5.00
2018-12-20T15:14:13.302Z,4.90
2018-12-20T15:16:42.050Z,4.90
2018-12-20T15:19:10.890Z,4.90
2018-12-20T15:21:39.964Z,4.80
2018-12-20T15:24:08.831Z,4.80
2018-12-20T15:26:37.696Z,4.80
2018-12-20T15:29:06.684Z,4.70
2018-12-20T15:31:35.687Z,4.70
2018-12-20T15:34:04.744Z,4.70
2018-12-20T15:36:33.374Z,4.60
2018-12-20T15:39:02.417Z,4.60
2018-12-20T15:41:31.527Z,4.60
2018-12-20T15:44:00.716Z,4.50
2018-12-20T15:46:29.521Z,4.50
2018-12-20T15:49:04.696Z,4.40
2018-12-20T15:51:34.535Z,4.30
2018-12-20T15:54:03.586Z,4.30
2018-12-20T15:56:32.556Z,4.20
2018-12-20T15:59:01.621Z,4.20
2018-12-20T16:01:30.524Z,4.10
2018-12-20T16:03:59.256Z,4.10
2018-12-20T16:06:28.051Z,4.10
2018-12-20T16:08:57.003Z,4.00
2018-12-20T16:11:25.847Z,4.00
2018-12-20T16:13:55.208Z,4.00
2018-12-20T16:16:24.599Z,4.00
2018-12-20T16:18:54.019Z,4.10
2018-12-20T16:21:22.745Z,4.10
2018-12-20T16:23:52.048Z,4.20
2018-12-20T16:26:21.520Z,4.20
2018-12-20T16:28:52.572Z,4.20
2018-12-20T16:31:25.660Z,4.30
2018-12-20T16:33:57.258Z,4.30
2018-12-20T16:36:25.891Z,4.30
2018-12-20T16:38:55.026Z,4.40
2018-12-20T16:41:23.935Z,4.40
2018-12-20T16:43:52.751Z,4.30
2018-12-20T16:46:21.949Z,4.30
2018-12-20T16:48:52.807Z,4.30
2018-12-20T16:51:21.730Z,4.30
2018-12-20T16:53:50.543Z,4.30
2018-12-20T16:56:19.163Z,4.30
2018-12-20T16:58:47.708Z,4.30
2018-12-20T17:01:16.395Z,4.30
2018-12-20T17:03:45.422Z,4.40
2018-12-20T17:06:14.649Z,4.40
2018-12-20T17:08:48.045Z,4.50
2018-12-20T17:11:14.049Z,4.40
2018-12-20T17:13:42.962Z,4.40
2018-12-20T17:16:11.788Z,4.40
2018-12-20T17:18:40.518Z,4.40
2018-12-20T17:21:09.725Z,4.40
2018-12-20T17:23:38.736Z,4.50
2018-12-20T17:26:07.747Z,4.40
2018-12-20T17:28:36.992Z,4.40
2018-12-20T17:31:06.087Z,4.50
2018-12-20T17:33:35.046Z,4.50
2018-12-20T17:36:03.670Z,4.50
2018-12-20T17:38:32.330Z,4.50
2018-12-20T17:41:01.264Z,4.50
2018-12-20T17:43:30.007Z,4.50
2018-12-20T17:45:58.891Z,4.50
2018-12-20T17:48:29.410Z,4.50
2018-12-20T17:50:58.412Z,4.50
2018-12-20T17:53:27.091Z,4.50
2018-12-20T17:55:55.606Z,4.50
2018-12-20T17:58:24.229Z,4.50
2018-12-20T18:00:52.932Z,4.50
2018-12-20T18:03:21.586Z,4.40
2018-12-20T18:05:50.280Z,4.40
2018-12-20T18:08:18.906Z,4.40
2018-12-20T18:10:47.599Z,4.40
2018-12-20T18:13:16.328Z,4.40
2018-12-20T18:15:45.290Z,4.40
2018-12-20T18:18:14.326Z,4.40
2018-12-20T18:20:43.402Z,4.40
2018-12-20T18:23:12.481Z,4.40
2018-12-20T18:25:41.364Z,4.40
2018-12-20T18:28:10.210Z,4.50
2018-12-20T18:30:39.238Z,4.50
2018-12-20T18:33:07.955Z,4.50
2018-12-20T18:35:37.244Z,4.50
2018-12-20T18:38:06.116Z,4.50
2018-12-20T18:40:35.288Z,4.50
2018-12-20T18:43:04.640Z,4.60
2018-12-20T18:45:33.710Z,4.60
2018-12-20T18:48:02.490Z,4.60
2018-12-20T18:50:31.554Z,4.50
2018-12-20T18:53:02.613Z,4.60
2018-12-20T18:55:32.118Z,4.50
2018-12-20T18:58:01.025Z,4.60
2018-12-20T19:00:30.036Z,4.50
2018-12-20T19:02:59.468Z,4.60
2018-12-20T19:05:28.253Z,4.60
2018-12-20T19:07:56.986Z,4.50
2018-12-20T19:10:26.085Z,4.50
2018-12-20T19:12:55.268Z,4.50
2018-12-20T19:15:24.377Z,4.50
2018-12-20T19:17:54.102Z,4.50
2018-12-20T19:20:23.501Z,4.50
2018-12-20T19:22:52.710Z,4.50
2018-12-20T19:25:21.916Z,4.50
2018-12-20T19:27:50.905Z,4.50
2018-12-20T19:30:19.575Z,4.50
2018-12-20T19:32:48.653Z,4.50
2018-12-20T19:35:18.817Z,4.50
2018-12-20T19:37:48.464Z,4.50
2018-12-20T19:40:17.853Z,4.60
2018-12-20T19:42:47.322Z,4.60
2018-12-20T19:45:19.781Z,4.60
2018-12-20T19:47:48.827Z,4.60
2018-12-20T19:50:18.572Z,4.60
2018-12-20T19:52:47.532Z,4.60
2018-12-20T19:55:17.501Z,4.60
2018-12-20T19:57:47.784Z,4.70
2018-12-20T20:00:21.161Z,4.60
2018-12-20T20:02:51.869Z,4.60
2018-12-20T20:05:29.198Z,4.60
2018-12-20T20:08:02.145Z,4.60
2018-12-20T20:10:41.631Z,4.60
2018-12-20T20:13:18.977Z,4.60
2018-12-20T20:15:41.881Z,4.60
2018-12-20T20:18:10.722Z,4.60
2018-12-20T20:20:40.137Z,4.60
2018-12-20T20:23:09.389Z,4.50
2018-12-20T20:25:37.989Z,4.50
2018-12-20T20:28:07.312Z,4.50
2018-12-20T20:30:36.070Z,4.40
2018-12-20T20:33:05.267Z,4.40
2018-12-20T20:35:34.185Z,4.30
2018-12-20T20:38:04.958Z,4.30
2018-12-20T20:40:34.110Z,4.30
2018-12-20T20:43:03.207Z,4.20
2018-12-20T20:45:32.929Z,4.20
2018-12-20T20:48:02.601Z,4.20
2018-12-20T20:50:31.876Z,4.20
2018-12-20T20:53:01.230Z,4.20
2018-12-20T20:55:32.266Z,4.20
2018-12-20T20:58:01.269Z,4.20
2018-12-20T21:00:31.104Z,4.10
2018-12-20T21:03:00.743Z,4.10
2018-12-20T21:05:29.999Z,4.10
2018-12-20T21:07:58.874Z,4.10
2018-12-20T21:10:28.385Z,4.10
2018-12-20T21:12:57.519Z,4.00
2018-12-20T21:15:26.998Z,4.00
2018-12-20T21:17:56.464Z,4.00
2018-12-20T21:20:30.687Z,4.00
2018-12-20T21:22:58.054Z,4.00
2018-12-20T21:25:27.325Z,4.00
2018-12-20T21:27:56.760Z,4.00
2018-12-20T21:30:26.252Z,3.90
2018-12-20T21:32:55.444Z,3.90
2018-12-20T21:35:24.668Z,3.90
2018-12-20T21:37:53.728Z,3.90
2018-12-20T21:40:27.208Z,3.80
2018-12-20T21:42:56.694Z,3.80
2018-12-20T21:45:30.338Z,3.80
2018-12-20T21:47:59.367Z,3.80
2018-12-20T21:50:28.587Z,3.80
2018-12-20T21:52:58.511Z,3.80
2018-12-20T21:55:27.396Z,3.70
2018-12-20T21:57:56.477Z,3.80
2018-12-20T22:00:25.868Z,3.70
2018-12-20T22:02:55.191Z,3.70
2018-12-20T22:05:25.126Z,3.70
2018-12-20T22:07:54.218Z,3.80
2018-12-20T22:10:24.092Z,3.80
2018-12-20T22:12:53.815Z,3.70
2018-12-20T22:15:23.285Z,3.70
2018-12-20T22:17:53.079Z,3.70
2018-12-20T22:20:24.348Z,3.70
2018-12-20T22:22:53.909Z,3.70
2018-12-20T22:25:23.798Z,3.70
2018-12-20T22:27:53.389Z,3.70
2018-12-20T22:30:23.379Z,3.70
2018-12-20T22:32:52.791Z,3.70
2018-12-20T22:35:21.821Z,3.70
2018-12-20T22:37:50.792Z,3.70
2018-12-20T22:40:19.312Z,3.80
2018-12-20T22:42:49.122Z,3.70
2018-12-20T22:45:18.195Z,3.80
2018-12-20T22:47:49.036Z,3.80
2018-12-20T22:50:18.921Z,3.80
2018-12-20T22:52:47.949Z,3.80
2018-12-20T22:55:17.106Z,3.80
2018-12-20T22:57:46.749Z,3.80
2018-12-20T23:00:16.631Z,3.80
2018-12-20T23:02:47.272Z,3.80
2018-12-20T23:05:16.354Z,3.80
2018-12-20T23:07:47.758Z,3.80
2018-12-20T23:10:16.659Z,3.80
2018-12-20T23:12:45.862Z,3.90
2018-12-20T23:15:15.774Z,3.90
2018-12-20T23:17:46.441Z,3.90
2018-12-20T23:20:15.487Z,3.90
2018-12-20T23:22:44.774Z,4.00
2018-12-20T23:25:13.723Z,4.00
2018-12-20T23:27:43.075Z,4.00
2018-12-20T23:30:11.890Z,4.00
2018-12-20T23:32:43.212Z,4.00
2018-12-20T23:35:12.049Z,4.00
2018-12-20T23:37:43.974Z,4.00
2018-12-20T23:40:13.084Z,3.90
2018-12-20T23:42:42.350Z,4.00
2018-12-20T23:45:11.560Z,3.90
2018-12-20T23:47:42.279Z,3.90
2018-12-20T23:50:11.565Z,4.00
2018-12-20T23:52:40.688Z,4.00
2018-12-20T23:55:09.653Z,4.00
2018-12-20T23:57:38.868Z,4.00
